Portada
METAR-TAF:

METAR-TAF

Aeroports :

Henderson City-County Airport

Henderson, Kentucky, Estats Units d'Amèrica

latitud: 37-49N, longitud: 087-41W, altitud: 117 m

Observació

L'informe es va fer fa 1 hora i 1 minuts, a les 22:56 UTC
Vent 5 kt del Nord-Oest
Temperatura 26°C
Humitat 48%
Pressió 1017 hPa
Visibilitat: 16.1 km
Cel clar

METAR: KEHR 292256Z AUTO 32005KT 10SM CLR 26/14 A3002 RMK AO2 SLP162 T02560144

Hora: 18:57 (23:57 UTC)


TAF: manca

Observacions i pronòstics meteorològics de més de 4000 aeroports (METAR i TAF).

Les estacions disponibles són els punts grocs i vermells al mapa.

Posi el ratolí al punt desitjat per veure el nom de l'estació.

Feu clic per veure les observacions i els pronòstics meteorològics.

Per canviar el mapa: feu clic els botons verds amb una creu de color negre per apropar; al botó verd amb un guió per allunyar la imatge; o en les fletxes verdes per a mapes adjacents.


METAR-TAF: